createdAt,value
2023-03-04T00:02:08.083Z,25.63
2023-03-04T00:04:34.515Z,26.25
2023-03-04T00:07:00.899Z,27.02
2023-03-04T00:09:27.327Z,25.45
2023-03-04T00:11:53.847Z,26.23
2023-03-04T00:14:20.533Z,24.77
2023-03-04T00:16:49.039Z,25.52
2023-03-04T00:19:15.452Z,26.02
2023-03-04T00:21:41.936Z,24.30
2023-03-04T00:24:08.530Z,25.98
2023-03-04T00:26:34.940Z,27.20
2023-03-04T00:29:01.339Z,28.85
2023-03-04T00:31:27.952Z,26.35
2023-03-04T00:33:54.357Z,27.85
2023-03-04T00:36:20.966Z,27.02
2023-03-04T00:38:47.436Z,28.10
2023-03-04T00:41:13.844Z,26.73
2023-03-04T00:43:41.384Z,28.55
2023-03-04T00:46:07.892Z,27.70
2023-03-04T00:48:35.175Z,28.17
2023-03-04T00:51:01.580Z,27.73
2023-03-04T00:53:27.997Z,27.88
2023-03-04T00:55:54.398Z,27.33
2023-03-04T00:58:21.054Z,27.48
2023-03-04T01:00:47.499Z,27.23
2023-03-04T01:03:14.034Z,27.17
2023-03-04T01:05:40.602Z,28.70
2023-03-04T01:08:07.139Z,28.20
2023-03-04T01:10:33.926Z,29.50
2023-03-04T01:13:00.459Z,29.50
2023-03-04T01:15:27.104Z,29.42
2023-03-04T01:17:54.783Z,32.10
2023-03-04T01:20:21.326Z,29.65
2023-03-04T01:22:47.861Z,32.60
2023-03-04T01:25:14.654Z,30.33
2023-03-04T01:27:41.165Z,30.80
2023-03-04T01:30:08.184Z,32.72
2023-03-04T01:32:34.748Z,35.33
2023-03-04T01:35:01.224Z,35.90
2023-03-04T01:37:29.267Z,37.70
2023-03-04T01:39:55.706Z,34.67
2023-03-04T01:42:24.563Z,31.73
2023-03-04T01:44:51.819Z,32.40
2023-03-04T01:47:19.480Z,31.58
2023-03-04T01:49:51.100Z,32.33
2023-03-04T01:52:17.682Z,31.08
2023-03-04T01:54:44.249Z,33.17
2023-03-04T01:57:20.220Z,31.52
2023-03-04T01:59:47.755Z,31.77
2023-03-04T02:02:14.771Z,33.28
2023-03-04T02:04:42.565Z,34.30
2023-03-04T02:07:09.225Z,36.13
2023-03-04T02:09:37.284Z,33.15
2023-03-04T02:12:04.512Z,34.80
2023-03-04T02:14:31.324Z,35.67
2023-03-04T02:16:57.844Z,35.75
2023-03-04T02:19:43.245Z,34.72
2023-03-04T02:22:09.825Z,37.00
2023-03-04T02:24:43.094Z,37.78
2023-03-04T02:27:09.611Z,38.13
2023-03-04T02:29:36.109Z,40.13
2023-03-04T02:32:03.399Z,41.15
2023-03-04T02:34:37.289Z,40.30
2023-03-04T02:37:04.261Z,39.83
2023-03-04T02:39:40.433Z,40.10
2023-03-04T02:42:07.338Z,40.63
2023-03-04T02:44:40.584Z,38.38
2023-03-04T02:47:09.758Z,40.05
2023-03-04T02:49:38.759Z,40.30
2023-03-04T02:52:19.493Z,39.60
2023-03-04T02:54:46.233Z,39.00
2023-03-04T02:57:14.826Z,38.80
2023-03-04T02:59:44.583Z,39.67
2023-03-04T03:02:16.644Z,38.05
2023-03-04T03:04:43.103Z,39.58
2023-03-04T03:07:13.025Z,38.08
2023-03-04T03:09:39.749Z,38.58
2023-03-04T03:12:06.392Z,37.60
2023-03-04T03:14:33.462Z,38.30
2023-03-04T03:17:00.796Z,39.45
2023-03-04T03:19:27.171Z,39.38
2023-03-04T03:21:54.710Z,39.65
2023-03-04T03:24:21.274Z,40.35
2023-03-04T03:26:47.725Z,38.58
2023-03-04T03:29:14.388Z,38.80
2023-03-04T03:31:40.966Z,38.67
2023-03-04T03:34:07.522Z,40.25
2023-03-04T03:36:34.232Z,38.53
2023-03-04T03:39:00.672Z,37.95
2023-03-04T03:41:27.107Z,38.65
2023-03-04T03:43:53.507Z,37.53
2023-03-04T03:46:19.914Z,38.65
2023-03-04T03:48:46.383Z,37.67
2023-03-04T03:51:12.833Z,38.67
2023-03-04T03:53:39.301Z,37.30
2023-03-04T03:56:06.204Z,41.40
2023-03-04T03:58:32.761Z,40.22
2023-03-04T04:00:59.192Z,40.00
2023-03-04T04:03:26.002Z,38.63
2023-03-04T04:05:52.619Z,39.22
2023-03-04T04:08:19.144Z,39.50
2023-03-04T04:10:45.620Z,40.72
2023-03-04T04:13:12.267Z,37.38
2023-03-04T04:15:39.619Z,39.22
2023-03-04T04:18:07.356Z,38.97
2023-03-04T04:20:35.237Z,39.72
2023-03-04T04:23:02.746Z,40.13
2023-03-04T04:25:29.565Z,38.88
2023-03-04T04:27:55.951Z,39.60
2023-03-04T04:30:22.407Z,38.75
2023-03-04T04:32:48.818Z,37.70
2023-03-04T04:35:15.316Z,39.85
2023-03-04T04:37:41.797Z,40.05
2023-03-04T04:40:08.782Z,39.50
2023-03-04T04:42:35.277Z,38.90
2023-03-04T04:45:01.750Z,38.92
2023-03-04T04:47:28.183Z,37.40
2023-03-04T04:49:54.683Z,39.85
2023-03-04T04:52:21.156Z,40.40
2023-03-04T04:54:47.618Z,40.67
2023-03-04T04:57:14.088Z,40.88
2023-03-04T04:59:40.564Z,40.05
2023-03-04T05:02:06.966Z,38.92
2023-03-04T05:04:33.415Z,39.60
2023-03-04T05:06:59.823Z,39.15
2023-03-04T05:09:26.219Z,37.53
2023-03-04T05:11:52.902Z,37.10
2023-03-04T05:14:19.309Z,36.70
2023-03-04T05:16:45.775Z,38.13
2023-03-04T05:19:12.274Z,38.28
2023-03-04T05:21:38.784Z,36.92
2023-03-04T05:24:05.482Z,39.33
2023-03-04T05:26:31.965Z,36.50
2023-03-04T05:28:58.359Z,40.10
2023-03-04T05:31:24.827Z,38.80
2023-03-04T05:33:51.281Z,40.13
2023-03-04T05:36:17.724Z,39.03
2023-03-04T05:38:44.158Z,38.67
2023-03-04T05:41:10.576Z,38.55
2023-03-04T05:43:38.333Z,41.15
2023-03-04T05:46:05.097Z,40.20
2023-03-04T05:48:31.921Z,39.63
2023-03-04T05:51:00.744Z,41.35
2023-03-04T05:53:28.031Z,39.47
2023-03-04T05:55:54.676Z,39.97
2023-03-04T05:58:21.642Z,41.90
2023-03-04T06:00:48.315Z,41.85
2023-03-04T06:03:20.382Z,42.60
2023-03-04T06:05:46.957Z,43.72
2023-03-04T06:08:13.918Z,42.17
2023-03-04T06:10:41.795Z,42.53
2023-03-04T06:13:09.228Z,39.65
2023-03-04T06:15:35.820Z,40.00
2023-03-04T06:18:02.584Z,40.63
2023-03-04T06:20:29.160Z,41.30
2023-03-04T06:22:55.586Z,41.50
2023-03-04T06:25:22.034Z,39.50
2023-03-04T06:27:50.539Z,37.92
2023-03-04T06:30:17.812Z,36.00
2023-03-04T06:32:44.365Z,37.05
2023-03-04T06:35:12.460Z,37.38
2023-03-04T06:37:39.006Z,38.38
2023-03-04T06:40:07.620Z,36.58
2023-03-04T06:42:35.597Z,34.85
2023-03-04T06:45:03.321Z,36.58
2023-03-04T06:47:29.855Z,36.78
2023-03-04T06:49:56.287Z,36.55
2023-03-04T06:52:22.822Z,35.80
2023-03-04T06:54:49.210Z,37.10
2023-03-04T06:57:15.686Z,38.17
2023-03-04T06:59:42.075Z,35.28
2023-03-04T07:02:12.440Z,37.25
2023-03-04T07:04:39.028Z,35.90
2023-03-04T07:07:05.543Z,36.97
2023-03-04T07:09:32.405Z,35.58
2023-03-04T07:11:58.809Z,35.80
2023-03-04T07:14:25.811Z,36.72
2023-03-04T07:16:52.214Z,34.58
2023-03-04T07:19:18.844Z,36.00
2023-03-04T07:21:45.427Z,34.90
2023-03-04T07:24:11.867Z,35.45
2023-03-04T07:26:39.165Z,37.33
2023-03-04T07:29:05.774Z,34.10
2023-03-04T07:31:34.714Z,37.58
2023-03-04T07:34:04.593Z,34.97
2023-03-04T07:36:31.918Z,35.92
2023-03-04T07:38:58.356Z,33.88
2023-03-04T07:41:26.583Z,33.42
2023-03-04T07:43:53.356Z,32.33
2023-03-04T07:46:19.940Z,27.77
2023-03-04T07:48:46.503Z,29.40
2023-03-04T07:51:18.266Z,29.02
2023-03-04T07:53:47.852Z,30.42
2023-03-04T07:56:23.173Z,33.17
2023-03-04T07:58:49.939Z,29.08
2023-03-04T08:01:21.873Z,30.35
2023-03-04T08:03:48.298Z,27.20
2023-03-04T08:06:17.103Z,28.35
2023-03-04T08:08:43.891Z,29.77
2023-03-04T08:11:19.075Z,32.10
2023-03-04T08:13:45.916Z,25.27
2023-03-04T08:16:15.518Z,26.67
2023-03-04T08:18:48.304Z,25.90
2023-03-04T08:21:16.567Z,25.35
2023-03-04T08:23:43.040Z,24.55
2023-03-04T08:26:16.858Z,25.05
2023-03-04T08:28:43.635Z,24.52
2023-03-04T08:31:10.144Z,23.52
2023-03-04T08:33:36.600Z,22.10
2023-03-04T08:36:03.162Z,23.58
2023-03-04T08:38:29.591Z,22.08
2023-03-04T08:40:56.797Z,22.48
2023-03-04T08:43:25.015Z,23.67
2023-03-04T08:45:52.816Z,25.90
2023-03-04T08:48:20.277Z,23.60
2023-03-04T08:50:47.280Z,23.25
2023-03-04T08:53:14.280Z,23.67
2023-03-04T08:55:42.226Z,32.47
2023-03-04T08:58:09.979Z,32.28
2023-03-04T09:00:38.588Z,22.67
2023-03-04T09:03:05.220Z,24.10
2023-03-04T09:05:32.602Z,23.50
2023-03-04T09:07:59.087Z,23.92
2023-03-04T09:10:26.057Z,23.75
2023-03-04T09:12:52.539Z,24.60
2023-03-04T09:15:19.197Z,24.45
2023-03-04T09:17:45.640Z,22.73
2023-03-04T09:20:13.058Z,23.42
2023-03-04T09:22:41.284Z,20.75
2023-03-04T09:25:12.703Z,21.98
2023-03-04T09:27:39.500Z,20.85
2023-03-04T09:30:06.657Z,22.77
2023-03-04T09:32:33.128Z,22.55
2023-03-04T09:34:59.583Z,22.00
2023-03-04T09:37:26.016Z,22.15
2023-03-04T09:39:52.396Z,23.25
2023-03-04T09:42:30.117Z,22.20
2023-03-04T09:44:57.682Z,23.50
2023-03-04T09:47:26.080Z,22.77
2023-03-04T09:50:02.252Z,22.92
2023-03-04T09:53:12.389Z,23.23
2023-03-04T09:55:42.438Z,24.33
2023-03-04T09:58:35.903Z,22.60
2023-03-04T10:01:11.940Z,22.05
2023-03-04T10:04:26.508Z,21.50
2023-03-04T10:06:54.619Z,23.95
2023-03-04T10:09:29.803Z,22.65
2023-03-04T10:12:01.675Z,24.95
2023-03-04T10:14:51.498Z,25.38
2023-03-04T10:17:36.978Z,23.55
2023-03-04T10:20:15.313Z,22.95
2023-03-04T10:22:51.848Z,23.85
2023-03-04T10:25:23.136Z,23.77
2023-03-04T10:27:59.450Z,22.80
2023-03-04T10:30:44.197Z,22.92
2023-03-04T10:33:15.434Z,21.88
2023-03-04T10:35:46.518Z,20.33
2023-03-04T10:38:13.756Z,23.88
2023-03-04T10:40:42.083Z,24.13
2023-03-04T10:43:20.273Z,22.98
2023-03-04T10:45:48.897Z,21.83
2023-03-04T10:48:25.257Z,20.10
2023-03-04T10:50:51.793Z,22.35
2023-03-04T10:53:39.902Z,22.10
2023-03-04T10:56:34.989Z,23.50
2023-03-04T10:59:34.247Z,19.90
2023-03-04T11:02:15.485Z,19.88
2023-03-04T11:04:41.964Z,18.40
2023-03-04T11:07:10.710Z,17.50
2023-03-04T11:09:37.853Z,18.20
2023-03-04T11:12:11.104Z,17.92
2023-03-04T11:14:44.293Z,19.27
2023-03-04T11:17:19.495Z,20.63
2023-03-04T11:19:51.290Z,19.88
2023-03-04T11:22:21.647Z,18.45
2023-03-04T11:25:18.131Z,18.65
2023-03-04T11:27:48.239Z,18.67
2023-03-04T11:30:39.360Z,19.17
2023-03-04T11:33:22.073Z,19.02
2023-03-04T11:36:06.462Z,21.05
2023-03-04T11:38:44.341Z,20.63
2023-03-04T11:41:28.540Z,21.10
2023-03-04T11:43:55.030Z,20.45
2023-03-04T11:46:43.273Z,21.73
2023-03-04T11:49:25.001Z,21.58
2023-03-04T11:52:06.791Z,20.92
2023-03-04T11:54:59.293Z,21.70
2023-03-04T11:57:28.455Z,19.45
2023-03-04T12:00:13.142Z,19.77
2023-03-04T12:03:03.805Z,19.83
2023-03-04T12:05:58.201Z,20.10
2023-03-04T12:08:30.594Z,22.33
2023-03-04T12:11:09.233Z,22.38
2023-03-04T12:13:49.532Z,20.10
2023-03-04T12:16:24.406Z,19.33
2023-03-04T12:19:24.857Z,20.27
2023-03-04T12:22:12.891Z,20.27
2023-03-04T12:25:02.710Z,21.08
2023-03-04T12:27:53.604Z,20.95
2023-03-04T12:30:35.195Z,21.33
2023-03-04T12:36:03.229Z,19.08
2023-03-04T12:38:39.075Z,21.70
2023-03-04T12:41:21.653Z,21.95
2023-03-04T12:44:08.280Z,21.75
2023-03-04T12:46:43.425Z,20.67
2023-03-04T12:49:30.535Z,21.27
2023-03-04T12:52:03.111Z,22.67
2023-03-04T12:54:37.591Z,20.23
2023-03-04T12:57:17.170Z,20.63
2023-03-04T13:00:07.989Z,21.60
2023-03-04T13:02:54.870Z,20.00
2023-03-04T13:05:35.520Z,20.58
2023-03-04T13:08:15.393Z,21.07
2023-03-04T13:10:41.847Z,20.48
2023-03-04T13:13:41.815Z,20.15
2023-03-04T13:16:11.427Z,21.08
2023-03-04T13:18:40.557Z,20.77
2023-03-04T13:21:22.805Z,20.77
2023-03-04T13:23:50.007Z,22.23
2023-03-04T13:26:20.721Z,20.70
2023-03-04T13:28:53.461Z,20.95
2023-03-04T13:31:26.987Z,20.73
2023-03-04T13:33:56.343Z,22.13
2023-03-04T13:36:54.839Z,21.55
2023-03-04T13:39:25.755Z,20.25
2023-03-04T13:41:54.171Z,21.15
2023-03-04T13:44:45.182Z,21.45
2023-03-04T13:47:18.640Z,21.30
2023-03-04T13:49:45.226Z,21.05
2023-03-04T13:52:39.579Z,22.00
2023-03-04T13:55:33.966Z,21.15
2023-03-04T13:58:02.225Z,23.30
2023-03-04T14:00:29.247Z,21.85
2023-03-04T14:02:55.708Z,22.42
2023-03-04T14:05:22.124Z,23.45
2023-03-04T14:07:48.531Z,24.08
2023-03-04T14:10:15.032Z,23.15
2023-03-04T14:12:46.288Z,24.92
2023-03-04T14:15:21.047Z,23.38
2023-03-04T14:17:51.983Z,23.52
2023-03-04T14:20:24.225Z,23.02
2023-03-04T14:22:50.715Z,22.33
2023-03-04T14:25:24.683Z,22.35
2023-03-04T14:28:02.804Z,23.27
2023-03-04T14:30:42.268Z,22.73
2023-03-04T14:33:17.692Z,21.35
2023-03-04T14:35:53.506Z,22.77
2023-03-04T14:38:35.446Z,22.10
2023-03-04T14:41:07.528Z,24.63
2023-03-04T14:43:43.344Z,23.20
2023-03-04T14:46:15.590Z,22.38
2023-03-04T14:48:49.096Z,22.02
2023-03-04T14:51:46.558Z,22.10
2023-03-04T14:54:37.426Z,22.73
2023-03-04T14:57:21.109Z,23.75
2023-03-04T14:59:47.744Z,24.58
2023-03-04T15:02:19.846Z,22.13
2023-03-04T15:04:48.146Z,22.58
2023-03-04T15:07:28.635Z,22.35
2023-03-04T15:09:55.798Z,23.42
2023-03-04T15:12:40.098Z,24.60
2023-03-04T15:15:34.889Z,24.27
2023-03-04T15:18:22.855Z,24.73
2023-03-04T15:21:01.414Z,22.13
2023-03-04T15:23:30.198Z,23.73
2023-03-04T15:25:58.990Z,25.02
2023-03-04T15:28:27.114Z,24.33
2023-03-04T15:30:54.397Z,24.83
2023-03-04T15:33:21.411Z,24.42
2023-03-04T15:35:59.071Z,24.25
2023-03-04T15:38:26.469Z,28.23
2023-03-04T15:40:54.592Z,28.23
2023-03-04T15:43:23.055Z,25.58
2023-03-04T15:45:50.765Z,23.77
2023-03-04T15:48:18.910Z,26.27
2023-03-04T15:50:54.388Z,24.60
2023-03-04T15:53:27.000Z,26.45
2023-03-04T15:55:53.912Z,24.90
2023-03-04T15:58:20.583Z,27.42
2023-03-04T16:00:47.038Z,26.25
2023-03-04T16:03:18.850Z,27.63
2023-03-04T16:05:47.944Z,26.15
2023-03-04T16:08:16.756Z,26.95
2023-03-04T16:10:44.451Z,27.40
2023-03-04T16:13:22.551Z,27.85
2023-03-04T16:15:49.309Z,28.05
2023-03-04T16:18:16.148Z,29.67
2023-03-04T16:20:46.186Z,28.98
2023-03-04T16:23:16.596Z,30.13
2023-03-04T16:25:45.018Z,30.50
2023-03-04T16:28:12.736Z,31.80
2023-03-04T16:30:40.512Z,29.40
2023-03-04T16:33:07.169Z,29.63
2023-03-04T16:35:36.619Z,30.10
2023-03-04T16:38:06.199Z,30.75
2023-03-04T16:40:33.013Z,31.75
2023-03-04T16:42:59.432Z,30.63
2023-03-04T16:45:30.369Z,29.40
2023-03-04T16:47:57.228Z,28.92
2023-03-04T16:50:27.302Z,31.23
2023-03-04T16:52:55.378Z,31.77
2023-03-04T16:55:25.485Z,32.53
2023-03-04T16:57:52.982Z,27.63
2023-03-04T17:00:22.201Z,29.00
2023-03-04T17:02:58.113Z,30.75
2023-03-04T17:05:27.541Z,29.73
2023-03-04T17:07:53.985Z,30.95
2023-03-04T17:10:21.214Z,29.27
2023-03-04T17:12:47.964Z,28.23
2023-03-04T17:15:15.127Z,28.23
2023-03-04T17:17:42.477Z,26.42
2023-03-04T17:20:12.243Z,27.33
2023-03-04T17:22:38.673Z,27.15
2023-03-04T17:25:05.529Z,29.30
2023-03-04T17:27:32.403Z,27.63
2023-03-04T17:29:58.818Z,29.23
2023-03-04T17:32:27.360Z,29.75
2023-03-04T17:34:55.682Z,27.65
2023-03-04T17:37:22.433Z,26.63
2023-03-04T17:39:48.848Z,26.15
2023-03-04T17:42:15.415Z,26.30
2023-03-04T17:44:42.143Z,26.40
2023-03-04T17:47:08.598Z,27.42
2023-03-04T17:49:35.080Z,24.52
2023-03-04T17:52:03.000Z,27.13
2023-03-04T17:54:29.481Z,25.70
2023-03-04T17:56:55.918Z,28.33
2023-03-04T17:59:22.436Z,25.48
2023-03-04T18:01:51.694Z,25.15
2023-03-04T18:04:20.167Z,26.30
2023-03-04T18:06:46.866Z,26.00
2023-03-04T18:09:13.358Z,25.40
2023-03-04T18:11:40.947Z,25.20
2023-03-04T18:14:07.703Z,24.73
2023-03-04T18:16:34.549Z,24.88
2023-03-04T18:19:01.849Z,24.25
2023-03-04T18:21:29.611Z,24.92
2023-03-04T18:23:56.928Z,23.95
2023-03-04T18:26:24.139Z,26.48
2023-03-04T18:28:51.928Z,24.23
2023-03-04T18:31:24.693Z,25.00
2023-03-04T18:33:51.827Z,26.48
2023-03-04T18:36:18.380Z,25.75
2023-03-04T18:38:44.870Z,24.98
2023-03-04T18:41:13.581Z,24.42
2023-03-04T18:43:40.465Z,24.40
2023-03-04T18:46:30.745Z,23.67
2023-03-04T18:49:01.999Z,24.10
2023-03-04T18:51:29.104Z,24.30
2023-03-04T18:53:55.518Z,23.23
2023-03-04T18:56:31.381Z,23.75
2023-03-04T18:58:59.193Z,23.17
2023-03-04T19:01:26.280Z,23.00
2023-03-04T19:03:54.298Z,23.95
2023-03-04T19:06:20.824Z,23.27
2023-03-04T19:08:47.350Z,21.17
2023-03-04T19:11:14.634Z,21.58
2023-03-04T19:13:41.196Z,22.98
2023-03-04T19:16:07.942Z,23.13
2023-03-04T19:18:34.385Z,21.10
2023-03-04T19:21:00.840Z,24.45
2023-03-04T19:23:29.224Z,22.88
2023-03-04T19:25:55.993Z,20.67
2023-03-04T19:28:24.153Z,19.70
2023-03-04T19:30:52.712Z,21.13
2023-03-04T19:33:19.928Z,21.58
2023-03-04T19:35:46.800Z,20.30
2023-03-04T19:38:13.760Z,19.52
2023-03-04T19:40:41.413Z,20.75
2023-03-04T19:43:08.371Z,21.42
2023-03-04T19:45:34.889Z,20.88
2023-03-04T19:48:02.988Z,19.70
2023-03-04T19:50:30.030Z,21.55
2023-03-04T19:52:56.532Z,19.75
2023-03-04T19:55:23.066Z,19.67
2023-03-04T19:57:49.621Z,19.95
2023-03-04T20:00:16.657Z,20.45
2023-03-04T20:02:45.036Z,18.52
2023-03-04T20:05:12.336Z,20.90
2023-03-04T20:07:39.713Z,21.33
2023-03-04T20:10:06.750Z,19.58
2023-03-04T20:12:34.212Z,20.20
2023-03-04T20:15:00.640Z,20.35
2023-03-04T20:17:27.083Z,20.50
2023-03-04T20:19:53.533Z,22.20
2023-03-04T20:22:19.947Z,20.75
2023-03-04T20:24:46.349Z,20.65
2023-03-04T20:27:15.352Z,22.63
2023-03-04T20:29:41.852Z,20.88
2023-03-04T20:32:08.388Z,21.00
2023-03-04T20:34:36.755Z,21.15
2023-03-04T20:37:03.181Z,23.00
2023-03-04T20:39:30.319Z,23.52
2023-03-04T20:41:57.999Z,23.20
2023-03-04T20:44:24.436Z,22.08
2023-03-04T20:46:52.407Z,21.23
2023-03-04T20:49:23.396Z,22.98
2023-03-04T20:51:51.303Z,25.70
2023-03-04T20:54:17.750Z,23.25
2023-03-04T20:56:44.265Z,22.23
2023-03-04T20:59:11.769Z,21.75
2023-03-04T21:01:40.196Z,21.73
2023-03-04T21:04:07.417Z,18.63
2023-03-04T21:06:34.240Z,21.13
2023-03-04T21:09:03.484Z,20.08
2023-03-04T21:11:29.929Z,19.10
2023-03-04T21:13:57.662Z,20.52
2023-03-04T21:16:26.863Z,19.00
2023-03-04T21:18:53.633Z,19.55
2023-03-04T21:21:23.049Z,18.42
2023-03-04T21:23:51.430Z,20.95
2023-03-04T21:26:19.120Z,19.52
2023-03-04T21:28:46.420Z,20.17
2023-03-04T21:31:19.107Z,19.40
2023-03-04T21:33:46.312Z,21.15
2023-03-04T21:36:13.877Z,21.42
2023-03-04T21:38:41.580Z,20.67
2023-03-04T21:41:24.597Z,20.88
2023-03-04T21:43:51.591Z,19.67
2023-03-04T21:46:19.032Z,22.20
2023-03-04T21:48:47.521Z,22.48
2023-03-04T21:51:15.443Z,22.10
2023-03-04T21:53:43.338Z,21.52
2023-03-04T21:56:11.572Z,21.48
2023-03-04T21:58:42.014Z,20.88
2023-03-04T22:01:10.508Z,19.83
2023-03-04T22:03:37.314Z,23.10
2023-03-04T22:06:08.114Z,22.63
2023-03-04T22:08:34.882Z,23.45
2023-03-04T22:11:09.661Z,21.23
2023-03-04T22:13:37.406Z,21.40
2023-03-04T22:16:04.954Z,21.13
2023-03-04T22:18:32.003Z,21.52
2023-03-04T22:21:04.173Z,20.77
2023-03-04T22:23:31.128Z,20.63
2023-03-04T22:26:05.763Z,21.02
2023-03-04T22:28:32.793Z,22.48
2023-03-04T22:30:59.563Z,20.85
2023-03-04T22:33:25.985Z,22.52
2023-03-04T22:35:52.764Z,21.92
2023-03-04T22:38:20.692Z,20.27
2023-03-04T22:40:48.930Z,19.15
2023-03-04T22:43:15.348Z,21.77
2023-03-04T22:45:41.792Z,19.77
2023-03-04T22:48:08.205Z,20.58
2023-03-04T22:50:35.025Z,22.85
2023-03-04T22:53:01.453Z,21.42
2023-03-04T22:55:27.888Z,21.17
2023-03-04T22:57:54.328Z,21.65
2023-03-04T23:00:26.261Z,21.88
2023-03-04T23:02:53.007Z,20.95
2023-03-04T23:05:20.906Z,22.80
2023-03-04T23:07:48.200Z,21.88
2023-03-04T23:10:24.793Z,21.65
2023-03-04T23:12:52.532Z,21.40
2023-03-04T23:15:19.727Z,19.85
2023-03-04T23:17:46.672Z,19.92
2023-03-04T23:20:18.799Z,22.17
2023-03-04T23:22:47.561Z,20.25
2023-03-04T23:25:15.354Z,22.10
2023-03-04T23:27:42.845Z,21.38
2023-03-04T23:30:14.865Z,20.42
2023-03-04T23:32:41.860Z,20.13
2023-03-04T23:35:08.838Z,20.20
2023-03-04T23:37:35.267Z,20.92
2023-03-04T23:40:01.998Z,21.45
2023-03-04T23:42:28.491Z,21.50
2023-03-04T23:44:54.896Z,19.58
2023-03-04T23:47:21.309Z,19.63
2023-03-04T23:49:47.964Z,20.63
2023-03-04T23:52:14.351Z,20.02
2023-03-04T23:54:40.742Z,18.58
2023-03-04T23:57:07.134Z,19.95
2023-03-04T23:59:33.542Z,19.83
